createdAt,value
2024-03-01T00:02:09.283Z,8.29
2024-03-01T00:11:22.495Z,8.29
2024-03-01T00:14:33.505Z,8.29
2024-03-01T00:25:06.188Z,8.24
2024-03-01T00:27:37.989Z,8.23
2024-03-01T00:30:08.220Z,8.22
2024-03-01T00:32:35.401Z,8.21
2024-03-01T00:37:45.026Z,8.23
2024-03-01T00:42:58.986Z,8.22
2024-03-01T03:11:07.224Z,8.25
2024-03-01T03:30:45.733Z,8.19
2024-03-01T03:33:12.303Z,8.16
2024-03-01T03:36:41.823Z,8.17
2024-03-01T03:39:08.623Z,8.17
2024-03-01T03:41:35.906Z,8.17
2024-03-01T03:44:05.427Z,8.18
2024-03-01T03:46:32.109Z,8.20
2024-03-01T03:49:03.243Z,8.22
2024-03-01T03:51:31.805Z,8.24
2024-03-01T03:53:58.547Z,8.27
2024-03-01T03:59:07.410Z,8.28
2024-03-01T04:05:21.287Z,8.20
2024-03-01T04:11:10.344Z,8.04
2024-03-01T07:37:49.264Z,6.05
2024-03-01T07:52:43.197Z,6.05
2024-03-01T10:05:11.835Z,7.60
2024-03-01T10:07:53.845Z,7.57
2024-03-01T10:10:47.619Z,7.63
2024-03-01T10:21:05.966Z,7.74
2024-03-01T10:45:36.146Z,7.81
2024-03-01T11:46:15.162Z,8.42
2024-03-01T15:17:10.039Z,9.34
2024-03-01T16:11:26.287Z,8.98
2024-03-01T16:13:55.357Z,8.99
2024-03-01T16:16:32.294Z,9.00
2024-03-01T16:19:04.921Z,8.99
2024-03-01T16:21:40.716Z,8.98
2024-03-01T16:24:13.598Z,8.98
2024-03-01T16:26:46.367Z,8.99
2024-03-01T16:29:22.618Z,8.98
2024-03-01T16:32:05.583Z,9.02
2024-03-01T16:34:38.415Z,9.03
2024-03-01T16:37:24.996Z,9.06
2024-03-01T16:40:12.434Z,9.05
2024-03-01T16:43:05.982Z,9.04
2024-03-01T16:45:36.490Z,9.06
2024-03-01T16:48:50.140Z,9.05
2024-03-01T16:51:46.354Z,9.02
2024-03-01T16:54:35.538Z,9.01
2024-03-01T16:57:54.562Z,9.01
2024-03-01T17:00:40.525Z,9.00
2024-03-01T17:06:30.987Z,9.00
2024-03-01T17:09:18.248Z,8.98
2024-03-01T17:12:11.176Z,8.98
2024-03-01T17:15:16.799Z,8.99
2024-03-01T17:19:01.343Z,8.99
2024-03-01T17:21:11.685Z,8.99
2024-03-01T17:24:06.422Z,9.01
2024-03-01T17:27:18.950Z,8.99
2024-03-01T17:30:16.041Z,8.98
2024-03-01T17:33:18.281Z,8.96
2024-03-01T17:36:15.793Z,8.96
2024-03-01T17:38:49.061Z,8.94
2024-03-01T17:41:32.960Z,8.94
2024-03-01T17:44:13.204Z,8.96
2024-03-01T17:46:44.749Z,8.96
2024-03-01T17:49:16.311Z,8.98
2024-03-01T17:51:56.305Z,8.98
2024-03-01T17:54:40.247Z,9.00
2024-03-01T17:57:12.171Z,9.02
2024-03-01T17:59:50.706Z,9.05
2024-03-01T18:02:35.485Z,9.04
2024-03-01T18:05:11.102Z,9.03
2024-03-01T18:07:37.906Z,9.07
2024-03-01T18:10:13.553Z,9.09
2024-03-01T18:12:41.609Z,9.08
2024-03-01T18:15:11.710Z,9.10
2024-03-01T18:17:40.652Z,9.10
2024-03-01T18:20:09.465Z,9.09
2024-03-01T18:29:41.968Z,8.99
2024-03-01T18:32:10.489Z,8.94
2024-03-01T18:34:37.336Z,8.92
2024-03-01T18:37:05.086Z,8.88
2024-03-01T18:39:31.804Z,8.84
2024-03-01T18:41:58.321Z,8.86
2024-03-01T18:44:24.788Z,8.84
2024-03-01T18:46:51.436Z,8.82
2024-03-01T18:49:19.235Z,8.79
2024-03-01T18:51:45.802Z,8.75
2024-03-01T18:54:18.173Z,8.72
2024-03-01T18:56:44.647Z,8.72
2024-03-01T18:59:12.509Z,8.67
2024-03-01T19:01:39.561Z,8.64
2024-03-01T19:04:06.228Z,8.60
2024-03-01T19:06:32.834Z,8.60
2024-03-01T19:08:59.264Z,8.57
2024-03-01T19:11:26.486Z,8.54
2024-03-01T19:13:55.113Z,8.51
2024-03-01T19:16:21.693Z,8.49
2024-03-01T19:18:48.423Z,8.47
2024-03-01T19:21:15.288Z,8.44
2024-03-01T19:23:41.750Z,8.45
2024-03-01T19:26:08.472Z,8.43
2024-03-01T19:28:34.981Z,8.43
2024-03-01T19:31:01.809Z,8.42
2024-03-01T19:33:28.376Z,8.40
2024-03-01T19:35:55.232Z,8.41
2024-03-01T19:38:23.014Z,8.42
2024-03-01T19:40:53.898Z,8.42
2024-03-01T19:43:22.239Z,8.43
2024-03-01T19:45:48.770Z,8.42
2024-03-01T19:48:15.321Z,8.39
2024-03-01T19:50:41.859Z,8.38
2024-03-01T19:53:09.106Z,8.37
2024-03-01T19:55:35.555Z,8.35
2024-03-01T19:58:02.125Z,8.35
2024-03-01T20:00:28.607Z,8.34
2024-03-01T20:02:55.448Z,8.30
2024-03-01T20:05:21.894Z,8.28
2024-03-01T20:07:48.569Z,8.28
2024-03-01T20:10:15.070Z,8.24
2024-03-01T20:12:41.515Z,8.23
2024-03-01T20:15:08.397Z,8.23
2024-03-01T20:17:34.913Z,8.22
2024-03-01T20:20:01.376Z,8.21
2024-03-01T20:22:28.160Z,8.19
2024-03-01T20:24:54.674Z,8.19
2024-03-01T20:27:21.220Z,8.19
2024-03-01T20:29:47.860Z,8.20
2024-03-01T20:32:14.518Z,8.21
2024-03-01T20:34:43.004Z,8.24
2024-03-01T20:37:10.084Z,8.25
2024-03-01T20:39:36.504Z,8.25
2024-03-01T20:42:03.007Z,8.26
2024-03-01T20:44:33.111Z,8.28
2024-03-01T20:46:59.612Z,8.30
2024-03-01T20:49:26.395Z,8.29
2024-03-01T20:51:52.929Z,8.30
2024-03-01T20:54:19.713Z,8.32
2024-03-01T20:56:46.131Z,8.33
2024-03-01T20:59:12.521Z,8.33
2024-03-01T21:01:39.062Z,8.31
2024-03-01T21:04:05.548Z,8.31
2024-03-01T21:06:35.306Z,8.31
2024-03-01T21:09:02.024Z,8.31
2024-03-01T21:11:28.562Z,8.30
2024-03-01T21:13:55.122Z,8.29
2024-03-01T21:16:21.839Z,8.29
2024-03-01T21:18:48.883Z,8.30
2024-03-01T21:21:18.122Z,8.31
2024-03-01T21:23:45.297Z,8.31
2024-03-01T21:26:12.395Z,8.30
2024-03-01T21:28:39.033Z,8.29
2024-03-01T21:31:05.476Z,8.30
2024-03-01T21:33:32.404Z,8.30
2024-03-01T21:36:01.455Z,8.30
2024-03-01T21:38:27.932Z,8.31
2024-03-01T21:40:54.334Z,8.31
2024-03-01T21:43:23.424Z,8.32
2024-03-01T21:45:50.058Z,8.32
2024-03-01T21:48:16.696Z,8.30
2024-03-01T21:50:43.646Z,8.29
2024-03-01T21:53:10.258Z,8.27
2024-03-01T21:55:37.843Z,8.26
2024-03-01T21:58:04.519Z,8.26
2024-03-01T22:00:30.976Z,8.26
2024-03-01T22:02:59.318Z,8.25
2024-03-01T22:05:25.708Z,8.23
2024-03-01T22:08:02.663Z,8.21
2024-03-01T22:10:36.597Z,8.20
2024-03-01T22:13:03.140Z,8.20
2024-03-01T22:15:29.613Z,8.17
2024-03-01T22:17:58.686Z,8.15
2024-03-01T22:20:25.020Z,8.16
2024-03-01T22:22:51.413Z,8.16
2024-03-01T22:25:20.629Z,8.18
2024-03-01T22:27:47.228Z,8.20
2024-03-01T22:30:14.509Z,8.16
2024-03-01T22:32:43.382Z,8.17
2024-03-01T22:35:10.323Z,8.20
2024-03-01T22:37:38.161Z,8.18
2024-03-01T22:40:06.139Z,8.16
2024-03-01T22:42:32.983Z,8.17
2024-03-01T22:45:00.239Z,8.17
2024-03-01T22:47:26.883Z,8.17
2024-03-01T22:49:55.002Z,8.16
2024-03-01T22:52:31.894Z,8.13
2024-03-01T22:54:59.662Z,8.09
2024-03-01T22:57:41.272Z,8.09
2024-03-01T23:00:20.522Z,8.08
2024-03-01T23:02:55.442Z,8.11
2024-03-01T23:05:46.627Z,8.10
2024-03-01T23:08:37.616Z,8.10
2024-03-01T23:11:30.396Z,8.10
2024-03-01T23:13:56.958Z,8.13
2024-03-01T23:16:23.532Z,8.09
2024-03-01T23:18:50.871Z,8.12
2024-03-01T23:21:17.309Z,8.16
2024-03-01T23:23:43.802Z,8.16
2024-03-01T23:26:10.374Z,8.16
2024-03-01T23:28:36.742Z,8.17
2024-03-01T23:31:04.110Z,8.20
2024-03-01T23:33:30.618Z,8.25
2024-03-01T23:35:58.082Z,8.29
2024-03-01T23:38:24.612Z,8.30
2024-03-01T23:40:52.483Z,8.34
2024-03-01T23:43:20.435Z,8.36
2024-03-01T23:45:47.102Z,8.36
2024-03-01T23:48:13.958Z,8.36
2024-03-01T23:50:41.391Z,8.37
2024-03-01T23:53:10.670Z,8.39
2024-03-01T23:55:38.542Z,8.39
2024-03-01T23:58:05.008Z,8.41
